createdAt,value
2017-09-12T00:00:42.622Z,10.50
2017-09-12T00:03:10.089Z,10.50
2017-09-12T00:05:37.555Z,10.60
2017-09-12T00:08:05.022Z,10.70
2017-09-12T00:10:33.276Z,10.70
2017-09-12T00:13:00.743Z,10.70
2017-09-12T00:15:28.194Z,10.70
2017-09-12T00:17:55.676Z,10.70
2017-09-12T00:20:23.199Z,10.60
2017-09-12T00:22:52.301Z,10.50
2017-09-12T00:25:19.746Z,10.40
2017-09-12T00:27:47.208Z,10.20
2017-09-12T00:30:14.650Z,10.30
2017-09-12T00:32:42.098Z,10.10
2017-09-12T00:35:09.570Z,10.00
2017-09-12T00:37:37.041Z,9.90
2017-09-12T00:40:04.522Z,10.00
2017-09-12T00:42:32.742Z,10.40
2017-09-12T00:45:00.197Z,10.40
2017-09-12T00:47:27.652Z,10.50
2017-09-12T00:49:55.109Z,10.70
2017-09-12T00:52:22.590Z,10.60
2017-09-12T00:54:50.150Z,10.60
2017-09-12T00:57:17.609Z,10.70
2017-09-12T00:59:45.170Z,10.80
2017-09-12T01:02:12.625Z,10.80
2017-09-12T01:04:40.073Z,10.90
2017-09-12T01:07:07.527Z,10.90
2017-09-12T01:09:34.977Z,10.80
2017-09-12T01:12:02.428Z,10.80
2017-09-12T01:14:29.898Z,10.70
2017-09-12T01:16:57.345Z,10.70
2017-09-12T01:19:24.817Z,10.60
2017-09-12T01:21:54.818Z,10.60
2017-09-12T01:24:22.497Z,10.60
2017-09-12T01:26:50.072Z,10.60
2017-09-12T01:29:17.534Z,10.50
2017-09-12T01:31:44.990Z,10.50
2017-09-12T01:34:12.524Z,10.50
2017-09-12T01:36:39.981Z,10.60
2017-09-12T01:39:07.537Z,10.50
2017-09-12T01:41:35.002Z,10.60
2017-09-12T01:44:02.451Z,10.70
2017-09-12T01:46:29.917Z,10.70
2017-09-12T01:48:57.376Z,10.70
2017-09-12T01:51:26.346Z,10.70
2017-09-12T01:53:53.805Z,10.70
2017-09-12T01:56:21.379Z,10.80
2017-09-12T01:58:48.825Z,10.80
2017-09-12T02:01:16.287Z,10.80
2017-09-12T02:03:43.746Z,10.80
2017-09-12T02:06:11.200Z,10.80
2017-09-12T02:08:38.657Z,10.90
2017-09-12T02:11:06.109Z,10.90
2017-09-12T02:13:33.572Z,10.90
2017-09-12T02:16:01.035Z,11.00
2017-09-12T02:18:28.482Z,11.00
2017-09-12T02:20:55.950Z,11.00
2017-09-12T02:23:23.411Z,10.90
2017-09-12T02:25:50.854Z,10.90
2017-09-12T02:28:18.311Z,10.90
2017-09-12T02:30:45.757Z,10.90
2017-09-12T02:33:13.221Z,10.80
2017-09-12T02:35:40.670Z,10.80
2017-09-12T02:38:08.129Z,10.80
2017-09-12T02:40:35.581Z,10.80
2017-09-12T02:43:03.038Z,10.90
2017-09-12T02:45:30.493Z,11.00
2017-09-12T02:47:58.054Z,11.00
2017-09-12T02:50:25.522Z,11.20
2017-09-12T02:52:52.985Z,11.20
2017-09-12T02:55:20.433Z,11.30
2017-09-12T02:57:47.898Z,11.30
2017-09-12T03:00:15.350Z,11.40
2017-09-12T03:02:42.814Z,11.40
2017-09-12T03:05:10.262Z,11.40
2017-09-12T03:07:37.725Z,11.50
2017-09-12T03:10:05.170Z,11.40
2017-09-12T03:12:32.733Z,11.40
2017-09-12T03:15:00.291Z,11.40
2017-09-12T03:17:27.746Z,11.40
2017-09-12T03:19:55.216Z,11.40
2017-09-12T03:22:22.679Z,11.40
2017-09-12T03:24:50.134Z,11.30
2017-09-12T03:27:17.594Z,11.40
2017-09-12T03:29:45.049Z,11.50
2017-09-12T03:32:12.594Z,11.60
2017-09-12T03:34:40.062Z,11.70
2017-09-12T03:37:07.513Z,11.60
2017-09-12T03:39:34.983Z,11.70
2017-09-12T03:42:02.442Z,11.80
2017-09-12T03:44:29.901Z,11.80
2017-09-12T03:46:58.118Z,11.70
2017-09-12T03:49:25.573Z,11.70
2017-09-12T03:51:53.025Z,11.80
2017-09-12T03:54:20.483Z,11.80
2017-09-12T03:56:47.933Z,11.70
2017-09-12T03:59:15.431Z,11.80
2017-09-12T04:01:42.883Z,11.80
2017-09-12T04:04:10.450Z,11.70
2017-09-12T04:06:37.902Z,11.80
2017-09-12T04:09:05.368Z,11.70
2017-09-12T04:11:32.817Z,11.80
2017-09-12T04:14:00.378Z,11.80
2017-09-12T04:16:27.833Z,11.90
2017-09-12T04:18:55.298Z,11.90
2017-09-12T04:21:22.758Z,12.00
2017-09-12T04:23:50.206Z,12.00
2017-09-12T04:26:17.670Z,11.90
2017-09-12T04:28:45.125Z,11.90
2017-09-12T04:31:12.586Z,11.80
2017-09-12T04:33:40.038Z,11.70
2017-09-12T04:36:07.506Z,11.80
2017-09-12T04:38:35.052Z,11.80
2017-09-12T04:41:02.510Z,11.80
2017-09-12T04:43:29.969Z,11.80
2017-09-12T04:45:58.229Z,11.90
2017-09-12T04:48:25.677Z,11.90
2017-09-12T04:50:53.138Z,11.90
2017-09-12T04:53:20.698Z,11.90
2017-09-12T04:55:48.187Z,11.90
2017-09-12T04:58:16.399Z,11.70
2017-09-12T05:00:43.889Z,11.70
2017-09-12T05:03:11.447Z,11.70
2017-09-12T05:05:39.005Z,11.80
2017-09-12T05:08:06.565Z,11.80
2017-09-12T05:10:34.022Z,11.80
2017-09-12T05:13:01.477Z,11.80
2017-09-12T05:15:28.929Z,12.00
2017-09-12T05:17:56.391Z,12.00
2017-09-12T05:20:23.853Z,12.10
2017-09-12T05:22:51.303Z,12.10
2017-09-12T05:25:18.866Z,12.10
2017-09-12T05:27:46.325Z,12.10
2017-09-12T05:30:13.787Z,12.30
2017-09-12T05:32:41.240Z,12.40
2017-09-12T05:35:08.702Z,12.30
2017-09-12T05:37:36.174Z,12.30
2017-09-12T05:40:03.618Z,12.50
2017-09-12T05:42:31.073Z,12.60
2017-09-12T05:44:58.525Z,12.60
2017-09-12T05:47:25.973Z,12.60
2017-09-12T05:49:53.435Z,12.70
2017-09-12T05:52:20.890Z,12.70
2017-09-12T05:54:48.356Z,12.60
2017-09-12T05:57:15.806Z,12.60
2017-09-12T05:59:43.267Z,12.70
2017-09-12T06:02:10.717Z,12.80
2017-09-12T06:04:38.270Z,12.80
2017-09-12T06:07:05.730Z,12.80
2017-09-12T06:09:33.181Z,12.80
2017-09-12T06:12:00.633Z,12.80
2017-09-12T06:14:28.094Z,12.70
2017-09-12T06:16:55.551Z,12.70
2017-09-12T06:19:23.022Z,12.60
2017-09-12T06:21:50.578Z,12.70
2017-09-12T06:24:18.037Z,12.70
2017-09-12T06:26:45.494Z,12.80
2017-09-12T06:29:12.949Z,12.90
2017-09-12T06:31:40.407Z,12.80
2017-09-12T06:34:07.865Z,12.80
2017-09-12T06:36:35.331Z,12.80
2017-09-12T06:39:02.773Z,13.00
2017-09-12T06:41:30.234Z,13.10
2017-09-12T06:43:57.801Z,13.20
2017-09-12T06:46:25.261Z,13.20
2017-09-12T06:48:53.513Z,13.50
2017-09-12T06:51:20.980Z,13.50
2017-09-12T06:53:48.425Z,13.70
2017-09-12T06:56:15.986Z,13.70
2017-09-12T06:58:43.438Z,14.00
2017-09-12T07:01:10.902Z,14.40
2017-09-12T07:03:38.355Z,14.60
2017-09-12T07:06:05.828Z,14.60
2017-09-12T07:08:33.277Z,14.60
2017-09-12T07:11:00.733Z,14.60
2017-09-12T07:13:28.201Z,14.70
2017-09-12T07:15:55.645Z,14.50
2017-09-12T07:18:24.623Z,14.80
2017-09-12T07:20:52.087Z,14.80
2017-09-12T07:23:19.645Z,14.90
2017-09-12T07:25:47.093Z,14.90
2017-09-12T07:28:14.650Z,14.90
2017-09-12T07:30:42.105Z,15.20
2017-09-12T07:33:09.573Z,15.50
2017-09-12T07:35:37.037Z,15.50
2017-09-12T07:38:04.499Z,15.40
2017-09-12T07:40:31.962Z,15.30
2017-09-12T07:42:59.427Z,15.50
2017-09-12T07:45:27.680Z,15.20
2017-09-12T07:47:55.127Z,15.20
2017-09-12T07:50:22.574Z,15.10
2017-09-12T07:52:50.034Z,14.90
2017-09-12T07:55:17.482Z,14.70
2017-09-12T07:57:44.945Z,14.70
2017-09-12T08:00:12.401Z,14.60
2017-09-12T08:02:39.850Z,14.40
2017-09-12T08:05:07.305Z,14.40
2017-09-12T08:07:34.758Z,14.40
2017-09-12T08:10:02.222Z,14.70
2017-09-12T08:12:29.672Z,14.70
2017-09-12T08:14:57.131Z,14.70
2017-09-12T08:17:24.581Z,14.80
2017-09-12T08:19:52.065Z,15.00
2017-09-12T08:22:19.525Z,15.40
2017-09-12T08:24:46.978Z,15.80
2017-09-12T08:27:14.426Z,16.30
2017-09-12T08:29:41.890Z,16.20
2017-09-12T08:32:09.340Z,16.00
2017-09-12T08:34:36.802Z,15.90
2017-09-12T08:37:04.264Z,15.70
2017-09-12T08:39:31.723Z,15.40
2017-09-12T08:41:59.167Z,15.30
2017-09-12T08:44:26.627Z,15.20
2017-09-12T08:46:54.074Z,15.10
2017-09-12T08:49:21.535Z,14.80
2017-09-12T08:51:48.985Z,14.80
2017-09-12T08:54:16.442Z,14.90
2017-09-12T08:56:43.897Z,14.80
2017-09-12T08:59:11.370Z,14.90
2017-09-12T09:01:38.818Z,15.10
2017-09-12T09:04:06.266Z,15.20
2017-09-12T09:06:33.720Z,15.40
2017-09-12T09:09:01.168Z,15.90
2017-09-12T09:11:28.638Z,16.20
2017-09-12T09:13:56.091Z,16.10
2017-09-12T09:16:23.554Z,16.00
2017-09-12T09:18:51.006Z,15.90
2017-09-12T09:21:18.474Z,15.70
2017-09-12T09:23:45.929Z,15.50
2017-09-12T09:26:13.388Z,15.40
2017-09-12T09:28:40.958Z,15.30
2017-09-12T09:31:09.191Z,15.30
2017-09-12T09:33:36.681Z,15.30
2017-09-12T09:36:04.256Z,15.50
2017-09-12T09:38:31.797Z,15.70
2017-09-12T09:40:59.266Z,15.60
2017-09-12T09:43:27.489Z,15.30
2017-09-12T09:45:54.942Z,15.30
2017-09-12T09:48:22.394Z,15.40
2017-09-12T09:50:49.849Z,15.30
2017-09-12T09:53:17.293Z,15.50
2017-09-12T09:55:45.635Z,16.30
2017-09-12T09:58:13.085Z,16.30
2017-09-12T10:00:40.646Z,16.10
2017-09-12T10:03:08.109Z,16.10
2017-09-12T10:05:35.561Z,16.10
2017-09-12T10:08:03.022Z,15.60
2017-09-12T10:10:30.573Z,15.50
2017-09-12T10:12:58.142Z,15.60
2017-09-12T10:15:25.599Z,15.80
2017-09-12T10:17:53.056Z,16.00
2017-09-12T10:20:20.504Z,16.00
2017-09-12T10:22:47.962Z,16.30
2017-09-12T10:25:15.517Z,16.40
2017-09-12T10:27:43.077Z,16.50
2017-09-12T10:30:10.531Z,16.60
2017-09-12T10:32:38.094Z,16.90
2017-09-12T10:35:05.555Z,16.90
2017-09-12T10:37:33.009Z,16.70
2017-09-12T10:40:00.470Z,16.80
2017-09-12T10:42:27.935Z,17.00
2017-09-12T10:44:55.387Z,17.00
2017-09-12T10:47:22.841Z,16.90
2017-09-12T10:49:50.303Z,16.70
2017-09-12T10:52:17.845Z,16.80
2017-09-12T10:54:45.293Z,16.80
2017-09-12T10:57:12.761Z,16.60
2017-09-12T10:59:40.322Z,16.40
2017-09-12T11:02:07.773Z,15.80
2017-09-12T11:04:35.343Z,14.90
2017-09-12T11:07:02.785Z,14.40
2017-09-12T11:09:30.242Z,14.10
2017-09-12T11:11:57.689Z,13.90
2017-09-12T11:14:25.150Z,13.80
2017-09-12T11:16:52.598Z,13.80
2017-09-12T11:19:20.053Z,14.00
2017-09-12T11:21:47.510Z,14.30
2017-09-12T11:24:14.985Z,14.40
2017-09-12T11:26:42.547Z,14.50
2017-09-12T11:29:10.109Z,14.40
2017-09-12T11:31:37.551Z,14.30
2017-09-12T11:34:05.025Z,14.10
2017-09-12T11:36:32.475Z,14.00
2017-09-12T11:38:59.921Z,13.90
2017-09-12T11:41:27.378Z,14.10
2017-09-12T11:43:54.825Z,14.10
2017-09-12T11:46:22.305Z,14.30
2017-09-12T11:48:49.761Z,14.40
2017-09-12T11:51:17.218Z,14.80
2017-09-12T11:53:44.671Z,15.20
2017-09-12T11:56:12.129Z,15.40
2017-09-12T11:58:39.581Z,15.70
2017-09-12T12:01:07.142Z,15.90
2017-09-12T12:03:34.599Z,16.20
2017-09-12T12:06:02.057Z,16.30
2017-09-12T12:08:29.506Z,16.20
2017-09-12T12:10:56.963Z,16.40
2017-09-12T12:13:24.406Z,16.60
2017-09-12T12:15:51.865Z,16.60
2017-09-12T12:18:19.321Z,17.00
2017-09-12T12:20:46.777Z,17.40
2017-09-12T12:23:14.262Z,17.10
2017-09-12T12:25:41.726Z,17.30
2017-09-12T12:28:09.190Z,17.40
2017-09-12T12:30:36.638Z,17.80
2017-09-12T12:33:04.184Z,18.40
2017-09-12T12:35:31.646Z,18.50
2017-09-12T12:37:59.198Z,18.30
2017-09-12T12:40:26.664Z,17.90
2017-09-12T12:42:54.115Z,17.70
2017-09-12T12:45:21.574Z,17.60
2017-09-12T12:47:49.026Z,17.60
2017-09-12T12:50:16.505Z,17.40
2017-09-12T12:52:43.945Z,17.30
2017-09-12T12:55:11.404Z,17.10
2017-09-12T12:57:38.870Z,16.90
2017-09-12T13:00:06.321Z,16.80
2017-09-12T13:02:33.782Z,16.90
2017-09-12T13:05:01.238Z,17.00
2017-09-12T13:07:28.699Z,17.10
2017-09-12T13:09:56.926Z,17.80
2017-09-12T13:12:24.390Z,17.80
2017-09-12T13:14:51.864Z,17.70
2017-09-12T13:17:19.331Z,17.80
2017-09-12T13:19:46.777Z,17.80
2017-09-12T13:22:14.237Z,17.50
2017-09-12T13:24:41.694Z,17.10
2017-09-12T13:27:09.153Z,17.20
2017-09-12T13:29:36.597Z,17.30
2017-09-12T13:32:04.070Z,17.20
2017-09-12T13:34:33.021Z,17.00
2017-09-12T13:37:00.483Z,17.00
2017-09-12T13:39:27.942Z,17.10
2017-09-12T13:41:55.406Z,17.50
2017-09-12T13:44:22.855Z,17.90
2017-09-12T13:46:50.334Z,17.80
2017-09-12T13:49:17.806Z,17.30
2017-09-12T13:51:45.252Z,16.90
2017-09-12T13:54:12.714Z,16.90
2017-09-12T13:56:40.263Z,16.80
2017-09-12T13:59:07.730Z,17.10
2017-09-12T14:01:35.187Z,17.40
2017-09-12T14:04:02.651Z,17.80
2017-09-12T14:06:30.104Z,17.70
2017-09-12T14:08:57.559Z,17.50
2017-09-12T14:11:25.011Z,17.20
2017-09-12T14:13:52.478Z,16.70
2017-09-12T14:16:19.934Z,16.80
2017-09-12T14:18:47.394Z,16.90
2017-09-12T14:21:14.845Z,17.10
2017-09-12T14:23:42.306Z,17.10
2017-09-12T14:26:09.761Z,17.50
2017-09-12T14:28:37.299Z,17.40
2017-09-12T14:31:04.750Z,17.30
2017-09-12T14:33:32.214Z,17.00
2017-09-12T14:35:59.664Z,16.80
2017-09-12T14:38:27.119Z,16.70
2017-09-12T14:40:54.577Z,16.70
2017-09-12T14:43:22.038Z,16.50
2017-09-12T14:45:49.490Z,16.40
2017-09-12T14:48:16.933Z,16.20
2017-09-12T14:50:44.394Z,16.10
2017-09-12T14:53:11.850Z,15.80
2017-09-12T14:55:39.306Z,15.10
2017-09-12T14:58:06.777Z,14.70
2017-09-12T15:00:34.230Z,14.90
2017-09-12T15:03:01.681Z,14.80
2017-09-12T15:05:29.137Z,14.70
2017-09-12T15:07:56.584Z,14.70
2017-09-12T15:10:24.049Z,14.70
2017-09-12T15:12:51.503Z,14.70
2017-09-12T15:15:18.958Z,15.10
2017-09-12T15:17:46.414Z,15.20
2017-09-12T15:20:13.873Z,15.60
2017-09-12T15:22:41.325Z,15.80
2017-09-12T15:25:08.777Z,15.80
2017-09-12T15:27:36.238Z,16.10
2017-09-12T15:30:03.695Z,16.10
2017-09-12T15:32:31.261Z,16.20
2017-09-12T15:34:58.706Z,16.30
2017-09-12T15:37:26.175Z,16.40
2017-09-12T15:39:53.617Z,16.50
2017-09-12T15:42:21.082Z,16.50
2017-09-12T15:44:48.656Z,16.30
2017-09-12T15:47:16.117Z,16.30
2017-09-12T15:49:44.329Z,16.20
2017-09-12T15:52:11.790Z,16.20
2017-09-12T15:54:39.307Z,16.10
2017-09-12T15:57:06.777Z,16.00
2017-09-12T15:59:34.222Z,15.90
2017-09-12T16:02:01.686Z,15.80
2017-09-12T16:04:29.129Z,16.00
2017-09-12T16:06:56.586Z,15.90
2017-09-12T16:09:24.029Z,16.00
2017-09-12T16:11:51.500Z,16.10
2017-09-12T16:14:18.950Z,16.20
2017-09-12T16:16:46.430Z,16.20
2017-09-12T16:19:13.903Z,16.50
2017-09-12T16:21:42.106Z,16.20
2017-09-12T16:24:09.597Z,16.20
2017-09-12T16:26:37.056Z,16.20
2017-09-12T16:29:04.510Z,16.20
2017-09-12T16:31:31.957Z,15.90
2017-09-12T16:33:59.425Z,15.70
2017-09-12T16:36:26.869Z,15.80
2017-09-12T16:38:54.330Z,15.80
2017-09-12T16:41:21.785Z,15.80
2017-09-12T16:43:49.251Z,15.60
2017-09-12T16:46:16.798Z,15.30
2017-09-12T16:48:44.267Z,15.30
2017-09-12T16:51:11.721Z,15.00
2017-09-12T16:53:39.183Z,14.80
2017-09-12T16:56:06.638Z,14.70
2017-09-12T16:58:34.106Z,14.50
2017-09-12T17:01:01.563Z,14.50
2017-09-12T17:03:29.010Z,14.50
2017-09-12T17:05:56.468Z,14.40
2017-09-12T17:08:23.923Z,14.40
2017-09-12T17:10:51.466Z,14.50
2017-09-12T17:13:18.922Z,14.50
2017-09-12T17:15:46.370Z,14.50
2017-09-12T17:18:13.825Z,14.40
2017-09-12T17:20:41.285Z,14.50
2017-09-12T17:23:08.729Z,14.60
2017-09-12T17:25:36.194Z,14.50
2017-09-12T17:28:03.661Z,14.40
2017-09-12T17:30:31.126Z,14.30
2017-09-12T17:32:58.587Z,14.40
2017-09-12T17:35:26.041Z,14.30
2017-09-12T17:37:53.499Z,14.20
2017-09-12T17:40:20.957Z,14.30
2017-09-12T17:42:48.401Z,14.30
2017-09-12T17:45:15.858Z,14.30
2017-09-12T17:47:43.309Z,14.20
2017-09-12T17:50:10.761Z,14.10
2017-09-12T17:52:38.213Z,14.00
2017-09-12T17:55:05.682Z,14.00
2017-09-12T17:57:34.226Z,14.10
2017-09-12T18:00:01.725Z,14.00
2017-09-12T18:02:29.178Z,13.90
2017-09-12T18:04:56.734Z,13.80
2017-09-12T18:07:24.191Z,13.90
2017-09-12T18:09:52.065Z,13.80
2017-09-12T18:12:19.507Z,13.80
2017-09-12T18:14:46.968Z,13.90
2017-09-12T18:17:15.150Z,13.90
2017-09-12T18:19:42.610Z,14.00
2017-09-12T18:22:10.053Z,14.10
2017-09-12T18:24:37.510Z,14.00
2017-09-12T18:27:05.933Z,13.80
2017-09-12T18:29:34.161Z,13.50
2017-09-12T18:32:01.626Z,13.50
2017-09-12T18:34:29.081Z,13.40
2017-09-12T18:36:56.535Z,13.40
2017-09-12T18:39:24.197Z,13.40
2017-09-12T18:41:51.651Z,13.40
2017-09-12T18:44:19.097Z,13.30
2017-09-12T18:46:46.560Z,13.20
2017-09-12T18:49:14.009Z,13.10
2017-09-12T18:51:41.592Z,13.00
2017-09-12T18:54:09.036Z,12.90
2017-09-12T18:56:36.506Z,12.80
2017-09-12T18:59:03.954Z,12.70
2017-09-12T19:01:31.509Z,12.70
2017-09-12T19:03:58.962Z,12.80
2017-09-12T19:06:26.419Z,12.90
2017-09-12T19:08:53.878Z,12.90
2017-09-12T19:11:21.345Z,13.00
2017-09-12T19:13:48.803Z,13.20
2017-09-12T19:16:16.289Z,13.20
2017-09-12T19:18:44.529Z,13.40
2017-09-12T19:21:11.981Z,13.40
2017-09-12T19:23:39.429Z,13.40
2017-09-12T19:26:07.016Z,13.50
2017-09-12T19:28:34.470Z,13.60
2017-09-12T19:31:01.945Z,13.50
2017-09-12T19:33:29.394Z,13.40
2017-09-12T19:35:57.687Z,13.40
2017-09-12T19:38:25.902Z,13.40
2017-09-12T19:40:53.352Z,13.40
2017-09-12T19:43:20.808Z,13.40
2017-09-12T19:45:48.289Z,13.40
2017-09-12T19:48:15.897Z,13.40
2017-09-12T19:50:44.135Z,13.30
2017-09-12T19:53:11.589Z,13.30
2017-09-12T19:55:39.041Z,13.10
2017-09-12T19:58:06.496Z,13.10
2017-09-12T20:00:33.958Z,13.10
2017-09-12T20:03:01.505Z,13.10
2017-09-12T20:05:29.014Z,13.20
2017-09-12T20:07:57.221Z,13.20
2017-09-12T20:10:24.671Z,13.20
2017-09-12T20:12:52.125Z,13.30
2017-09-12T20:15:19.577Z,13.40
2017-09-12T20:17:47.039Z,13.40
2017-09-12T20:20:14.477Z,13.30
2017-09-12T20:22:42.631Z,13.30
2017-09-12T20:25:10.846Z,13.20
2017-09-12T20:27:38.306Z,13.20
2017-09-12T20:30:05.754Z,13.10
2017-09-12T20:32:33.214Z,13.00
2017-09-12T20:35:00.673Z,12.90
2017-09-12T20:37:28.158Z,12.90
2017-09-12T20:39:55.632Z,12.90
2017-09-12T20:42:23.385Z,12.90
2017-09-12T20:44:51.618Z,13.00
2017-09-12T20:47:19.078Z,12.90
2017-09-12T20:49:46.533Z,13.00
2017-09-12T20:52:13.990Z,13.10
2017-09-12T20:54:41.446Z,13.00
2017-09-12T20:57:08.910Z,13.00
2017-09-12T20:59:36.370Z,13.00
2017-09-12T21:02:03.825Z,13.10
2017-09-12T21:04:31.285Z,13.10
2017-09-12T21:06:58.737Z,12.90
2017-09-12T21:09:26.197Z,12.80
2017-09-12T21:11:53.669Z,12.70
2017-09-12T21:14:21.149Z,12.70
2017-09-12T21:16:48.597Z,12.60
2017-09-12T21:19:16.042Z,12.60
2017-09-12T21:21:43.503Z,12.50
2017-09-12T21:24:10.952Z,12.40
2017-09-12T21:26:38.420Z,12.30
2017-09-12T21:29:05.870Z,12.30
2017-09-12T21:31:33.329Z,12.20
2017-09-12T21:34:00.774Z,12.20
2017-09-12T21:36:28.238Z,12.20
2017-09-12T21:38:55.689Z,12.20
2017-09-12T21:41:23.253Z,12.10
2017-09-12T21:43:50.698Z,12.20
2017-09-12T21:46:18.166Z,12.10
2017-09-12T21:48:45.630Z,12.10
2017-09-12T21:51:13.085Z,12.10
2017-09-12T21:53:40.543Z,12.00
2017-09-12T21:56:09.514Z,12.00
2017-09-12T21:58:36.979Z,12.00
2017-09-12T22:02:35.243Z,12.10
2017-09-12T22:05:02.698Z,12.10
2017-09-12T22:07:30.153Z,12.10
2017-09-12T22:09:57.654Z,12.20
2017-09-12T22:12:25.117Z,12.20
2017-09-12T22:14:52.575Z,12.30
2017-09-12T22:17:20.028Z,12.30
2017-09-12T22:19:47.485Z,12.20
2017-09-12T22:22:14.947Z,12.30
2017-09-12T22:24:42.397Z,12.30
2017-09-12T22:27:09.878Z,12.20
2017-09-12T22:29:38.098Z,12.10
2017-09-12T22:32:07.059Z,12.10
2017-09-12T22:34:34.514Z,12.00
2017-09-12T22:37:02.021Z,12.00
2017-09-12T22:39:29.486Z,12.00
2017-09-12T22:41:56.933Z,12.00
2017-09-12T22:44:24.390Z,11.90
2017-09-12T22:46:51.937Z,11.80
2017-09-12T22:49:19.410Z,11.80
2017-09-12T22:51:46.954Z,11.80
2017-09-12T22:54:14.414Z,11.70
2017-09-12T22:56:41.859Z,11.70
2017-09-12T22:59:09.313Z,11.60
2017-09-12T23:01:36.759Z,11.60
2017-09-12T23:04:04.250Z,11.60
2017-09-12T23:06:31.706Z,11.60
2017-09-12T23:08:59.173Z,11.60
2017-09-12T23:11:26.720Z,11.60
2017-09-12T23:13:54.178Z,11.60
2017-09-12T23:16:21.639Z,11.50
2017-09-12T23:18:49.094Z,11.50
2017-09-12T23:21:18.066Z,11.50
2017-09-12T23:23:45.515Z,11.50
2017-09-12T23:26:13.798Z,11.40
2017-09-12T23:28:41.272Z,11.40
2017-09-12T23:31:08.748Z,11.50
2017-09-12T23:33:36.194Z,11.40
2017-09-12T23:36:03.660Z,11.40
2017-09-12T23:38:31.877Z,11.40
2017-09-12T23:40:59.337Z,11.40
2017-09-12T23:43:26.797Z,11.40
2017-09-12T23:45:56.117Z,11.30
2017-09-12T23:48:23.582Z,11.30
2017-09-12T23:50:51.030Z,11.40
2017-09-12T23:53:18.481Z,11.50
2017-09-12T23:55:46.274Z,11.50
2017-09-12T23:58:13.797Z,11.60
